sensor_id;sensor_type;location;lat;lon;timestamp;temperature;humidity
78366;HTU21D;67641;59.864;30.464;2023-04-24T00:01:13;12.71;55.78
78366;HTU21D;67641;59.864;30.464;2023-04-24T00:03:41;12.74;54.94
78366;HTU21D;67641;59.864;30.464;2023-04-24T00:06:08;12.73;55.87
78366;HTU21D;67641;59.864;30.464;2023-04-24T00:08:35;12.71;56.00
78366;HTU21D;67641;59.864;30.464;2023-04-24T00:11:02;12.72;55.75
78366;HTU21D;67641;59.864;30.464;2023-04-24T00:13:29;12.74;54.73
78366;HTU21D;67641;59.864;30.464;2023-04-24T00:15:56;12.71;55.65
78366;HTU21D;67641;59.864;30.464;2023-04-24T00:18:23;12.66;54.99
78366;HTU21D;67641;59.864;30.464;2023-04-24T00:20:49;12.58;55.95
78366;HTU21D;67641;59.864;30.464;2023-04-24T00:23:16;12.58;56.75
78366;HTU21D;67641;59.864;30.464;2023-04-24T00:25:43;12.52;56.78
78366;HTU21D;67641;59.864;30.464;2023-04-24T00:28:09;12.49;56.88
78366;HTU21D;67641;59.864;30.464;2023-04-24T00:30:36;12.51;56.39
78366;HTU21D;67641;59.864;30.464;2023-04-24T00:33:02;12.48;57.32
78366;HTU21D;67641;59.864;30.464;2023-04-24T00:35:29;12.47;57.53
78366;HTU21D;67641;59.864;30.464;2023-04-24T00:37:56;12.38;57.36
78366;HTU21D;67641;59.864;30.464;2023-04-24T00:40:22;12.41;57.12
78366;HTU21D;67641;59.864;30.464;2023-04-24T00:42:49;12.42;56.81
78366;HTU21D;67641;59.864;30.464;2023-04-24T00:45:16;12.37;56.61
78366;HTU21D;67641;59.864;30.464;2023-04-24T00:47:43;12.37;56.89
78366;HTU21D;67641;59.864;30.464;2023-04-24T00:50:10;12.34;57.31
78366;HTU21D;67641;59.864;30.464;2023-04-24T00:52:37;12.38;56.95
78366;HTU21D;67641;59.864;30.464;2023-04-24T00:55:07;12.41;55.72
78366;HTU21D;67641;59.864;30.464;2023-04-24T00:57:34;12.44;56.24
78366;HTU21D;67641;59.864;30.464;2023-04-24T01:00:00;12.45;56.25
78366;HTU21D;67641;59.864;30.464;2023-04-24T01:02:27;12.44;56.15
78366;HTU21D;67641;59.864;30.464;2023-04-24T01:04:53;12.48;55.32
78366;HTU21D;67641;59.864;30.464;2023-04-24T01:07:20;12.57;55.30
78366;HTU21D;67641;59.864;30.464;2023-04-24T01:09:48;12.53;54.27
78366;HTU21D;67641;59.864;30.464;2023-04-24T01:12:16;12.52;54.15
78366;HTU21D;67641;59.864;30.464;2023-04-24T01:14:43;12.56;52.76
78366;HTU21D;67641;59.864;30.464;2023-04-24T01:17:10;12.52;54.57
78366;HTU21D;67641;59.864;30.464;2023-04-24T01:19:37;12.33;57.13
78366;HTU21D;67641;59.864;30.464;2023-04-24T01:22:10;12.25;57.54
78366;HTU21D;67641;59.864;30.464;2023-04-24T01:24:37;12.16;57.26
78366;HTU21D;67641;59.864;30.464;2023-04-24T01:27:04;12.16;57.07
78366;HTU21D;67641;59.864;30.464;2023-04-24T01:29:31;12.12;56.73
78366;HTU21D;67641;59.864;30.464;2023-04-24T01:31:57;12.14;55.70
78366;HTU21D;67641;59.864;30.464;2023-04-24T01:34:25;12.18;56.04
78366;HTU21D;67641;59.864;30.464;2023-04-24T01:36:51;12.27;55.72
78366;HTU21D;67641;59.864;30.464;2023-04-24T01:39:18;12.27;55.95
78366;HTU21D;67641;59.864;30.464;2023-04-24T01:41:46;12.30;54.94
78366;HTU21D;67641;59.864;30.464;2023-04-24T01:44:13;12.29;56.07
78366;HTU21D;67641;59.864;30.464;2023-04-24T01:46:40;12.21;56.03
78366;HTU21D;67641;59.864;30.464;2023-04-24T01:49:06;12.16;56.83
78366;HTU21D;67641;59.864;30.464;2023-04-24T01:51:33;12.16;56.65
78366;HTU21D;67641;59.864;30.464;2023-04-24T01:54:00;12.13;55.74
78366;HTU21D;67641;59.864;30.464;2023-04-24T01:56:29;12.19;56.07
78366;HTU21D;67641;59.864;30.464;2023-04-24T01:58:56;12.16;56.55
78366;HTU21D;67641;59.864;30.464;2023-04-24T02:01:23;12.17;55.60
78366;HTU21D;67641;59.864;30.464;2023-04-24T02:03:50;12.25;55.89
78366;HTU21D;67641;59.864;30.464;2023-04-24T02:06:17;12.21;56.26
78366;HTU21D;67641;59.864;30.464;2023-04-24T02:08:43;12.16;56.49
78366;HTU21D;67641;59.864;30.464;2023-04-24T02:11:09;12.11;57.54
78366;HTU21D;67641;59.864;30.464;2023-04-24T02:13:36;12.12;58.36
78366;HTU21D;67641;59.864;30.464;2023-04-24T02:16:02;12.15;57.89
78366;HTU21D;67641;59.864;30.464;2023-04-24T02:18:29;12.18;57.72
78366;HTU21D;67641;59.864;30.464;2023-04-24T02:20:55;12.16;56.92
78366;HTU21D;67641;59.864;30.464;2023-04-24T02:23:22;12.21;57.10
78366;HTU21D;67641;59.864;30.464;2023-04-24T02:25:48;12.22;56.15
78366;HTU21D;67641;59.864;30.464;2023-04-24T02:28:15;12.19;56.93
78366;HTU21D;67641;59.864;30.464;2023-04-24T02:30:41;12.18;57.26
78366;HTU21D;67641;59.864;30.464;2023-04-24T02:33:07;12.12;57.19
78366;HTU21D;67641;59.864;30.464;2023-04-24T02:35:34;12.15;58.02
78366;HTU21D;67641;59.864;30.464;2023-04-24T02:38:00;12.14;58.29
78366;HTU21D;67641;59.864;30.464;2023-04-24T02:40:27;12.11;57.83
78366;HTU21D;67641;59.864;30.464;2023-04-24T02:42:53;12.16;57.67
78366;HTU21D;67641;59.864;30.464;2023-04-24T02:45:20;12.18;57.35
78366;HTU21D;67641;59.864;30.464;2023-04-24T02:47:46;12.08;56.64
78366;HTU21D;67641;59.864;30.464;2023-04-24T02:50:13;12.12;57.06
78366;HTU21D;67641;59.864;30.464;2023-04-24T02:52:40;12.10;58.28
78366;HTU21D;67641;59.864;30.464;2023-04-24T02:55:06;12.05;58.21
78366;HTU21D;67641;59.864;30.464;2023-04-24T02:57:34;12.02;58.83
78366;HTU21D;67641;59.864;30.464;2023-04-24T03:00:00;12.00;57.77
78366;HTU21D;67641;59.864;30.464;2023-04-24T03:02:27;12.08;58.52
78366;HTU21D;67641;59.864;30.464;2023-04-24T03:04:53;12.05;58.59
78366;HTU21D;67641;59.864;30.464;2023-04-24T03:07:19;12.04;58.35
78366;HTU21D;67641;59.864;30.464;2023-04-24T03:09:47;12.03;58.17
78366;HTU21D;67641;59.864;30.464;2023-04-24T03:12:14;12.10;57.91
78366;HTU21D;67641;59.864;30.464;2023-04-24T03:14:40;12.07;58.74
78366;HTU21D;67641;59.864;30.464;2023-04-24T03:17:06;12.00;59.00
78366;HTU21D;67641;59.864;30.464;2023-04-24T03:19:33;11.97;58.06
78366;HTU21D;67641;59.864;30.464;2023-04-24T03:22:02;12.01;59.35
78366;HTU21D;67641;59.864;30.464;2023-04-24T03:24:28;11.96;59.97
78366;HTU21D;67641;59.864;30.464;2023-04-24T03:26:55;11.97;59.39
78366;HTU21D;67641;59.864;30.464;2023-04-24T03:29:22;12.00;59.84
78366;HTU21D;67641;59.864;30.464;2023-04-24T03:31:49;12.01;58.94
78366;HTU21D;67641;59.864;30.464;2023-04-24T03:34:15;12.01;59.18
78366;HTU21D;67641;59.864;30.464;2023-04-24T03:36:42;12.01;59.16
78366;HTU21D;67641;59.864;30.464;2023-04-24T03:39:08;12.00;59.20
78366;HTU21D;67641;59.864;30.464;2023-04-24T03:41:35;12.03;58.87
78366;HTU21D;67641;59.864;30.464;2023-04-24T03:44:01;12.04;58.78
78366;HTU21D;67641;59.864;30.464;2023-04-24T03:46:28;12.13;57.64
78366;HTU21D;67641;59.864;30.464;2023-04-24T03:48:55;12.17;58.62
78366;HTU21D;67641;59.864;30.464;2023-04-24T03:51:21;12.20;58.74
78366;HTU21D;67641;59.864;30.464;2023-04-24T03:53:49;12.26;58.51
78366;HTU21D;67641;59.864;30.464;2023-04-24T03:56:15;12.32;58.66
78366;HTU21D;67641;59.864;30.464;2023-04-24T03:58:42;12.35;58.91
78366;HTU21D;67641;59.864;30.464;2023-04-24T04:01:11;12.42;58.77
78366;HTU21D;67641;59.864;30.464;2023-04-24T04:03:39;12.51;58.79
78366;HTU21D;67641;59.864;30.464;2023-04-24T04:06:05;12.51;58.65
78366;HTU21D;67641;59.864;30.464;2023-04-24T04:08:32;12.55;58.51
78366;HTU21D;67641;59.864;30.464;2023-04-24T04:10:58;12.63;58.76
78366;HTU21D;67641;59.864;30.464;2023-04-24T04:13:25;12.72;59.14
78366;HTU21D;67641;59.864;30.464;2023-04-24T04:15:51;12.75;59.57
78366;HTU21D;67641;59.864;30.464;2023-04-24T04:18:18;12.86;59.46
78366;HTU21D;67641;59.864;30.464;2023-04-24T04:20:44;12.86;59.77
78366;HTU21D;67641;59.864;30.464;2023-04-24T04:23:11;12.82;59.84
78366;HTU21D;67641;59.864;30.464;2023-04-24T04:25:37;12.81;59.80
78366;HTU21D;67641;59.864;30.464;2023-04-24T04:28:03;12.97;59.83
78366;HTU21D;67641;59.864;30.464;2023-04-24T04:30:30;13.08;60.08
78366;HTU21D;67641;59.864;30.464;2023-04-24T04:32:59;13.15;59.44
78366;HTU21D;67641;59.864;30.464;2023-04-24T04:35:25;13.19;59.72
78366;HTU21D;67641;59.864;30.464;2023-04-24T04:37:52;13.19;60.60
78366;HTU21D;67641;59.864;30.464;2023-04-24T04:40:18;13.20;60.87
78366;HTU21D;67641;59.864;30.464;2023-04-24T04:42:45;13.31;60.49
78366;HTU21D;67641;59.864;30.464;2023-04-24T04:45:12;13.31;60.89
78366;HTU21D;67641;59.864;30.464;2023-04-24T04:47:38;13.36;60.81
78366;HTU21D;67641;59.864;30.464;2023-04-24T04:50:06;13.51;60.44
78366;HTU21D;67641;59.864;30.464;2023-04-24T04:52:33;13.69;60.67
78366;HTU21D;67641;59.864;30.464;2023-04-24T04:54:59;13.79;60.75
78366;HTU21D;67641;59.864;30.464;2023-04-24T04:57:26;13.76;61.54
78366;HTU21D;67641;59.864;30.464;2023-04-24T04:59:52;13.76;62.37
78366;HTU21D;67641;59.864;30.464;2023-04-24T05:02:19;13.77;62.13
78366;HTU21D;67641;59.864;30.464;2023-04-24T05:04:45;13.75;60.75
78366;HTU21D;67641;59.864;30.464;2023-04-24T05:07:12;13.81;60.85
78366;HTU21D;67641;59.864;30.464;2023-04-24T05:09:38;13.84;59.26
78366;HTU21D;67641;59.864;30.464;2023-04-24T05:12:05;13.92;58.68
78366;HTU21D;67641;59.864;30.464;2023-04-24T05:14:31;13.96;59.51
78366;HTU21D;67641;59.864;30.464;2023-04-24T05:16:58;13.99;55.95
78366;HTU21D;67641;59.864;30.464;2023-04-24T05:19:24;14.04;55.32
78366;HTU21D;67641;59.864;30.464;2023-04-24T05:21:51;14.14;56.36
78366;HTU21D;67641;59.864;30.464;2023-04-24T05:24:17;14.25;55.68
78366;HTU21D;67641;59.864;30.464;2023-04-24T05:26:44;14.38;51.12
78366;HTU21D;67641;59.864;30.464;2023-04-24T05:29:10;14.52;52.15
78366;HTU21D;67641;59.864;30.464;2023-04-24T05:31:37;14.58;51.41
78366;HTU21D;67641;59.864;30.464;2023-04-24T05:34:04;14.55;50.85
78366;HTU21D;67641;59.864;30.464;2023-04-24T05:36:31;14.66;53.30
78366;HTU21D;67641;59.864;30.464;2023-04-24T05:38:58;14.78;50.85
78366;HTU21D;67641;59.864;30.464;2023-04-24T05:41:24;14.89;48.86
78366;HTU21D;67641;59.864;30.464;2023-04-24T05:43:51;15.01;50.01
78366;HTU21D;67641;59.864;30.464;2023-04-24T05:46:17;15.10;48.83
78366;HTU21D;67641;59.864;30.464;2023-04-24T05:48:44;15.15;49.89
78366;HTU21D;67641;59.864;30.464;2023-04-24T05:51:11;15.25;49.28
78366;HTU21D;67641;59.864;30.464;2023-04-24T05:53:37;15.33;51.98
78366;HTU21D;67641;59.864;30.464;2023-04-24T05:56:04;15.39;51.03
78366;HTU21D;67641;59.864;30.464;2023-04-24T05:58:31;15.44;48.78
78366;HTU21D;67641;59.864;30.464;2023-04-24T06:00:57;15.45;49.14
78366;HTU21D;67641;59.864;30.464;2023-04-24T06:03:24;15.47;48.02
78366;HTU21D;67641;59.864;30.464;2023-04-24T06:05:51;15.52;48.97
78366;HTU21D;67641;59.864;30.464;2023-04-24T06:08:17;15.61;48.56
78366;HTU21D;67641;59.864;30.464;2023-04-24T06:10:44;15.63;47.70
78366;HTU21D;67641;59.864;30.464;2023-04-24T06:13:10;15.61;47.97
78366;HTU21D;67641;59.864;30.464;2023-04-24T06:15:37;15.63;48.72
78366;HTU21D;67641;59.864;30.464;2023-04-24T06:18:04;15.67;48.96
78366;HTU21D;67641;59.864;30.464;2023-04-24T06:20:30;15.72;49.02
78366;HTU21D;67641;59.864;30.464;2023-04-24T06:22:57;15.75;49.13
78366;HTU21D;67641;59.864;30.464;2023-04-24T06:25:26;15.78;47.70
78366;HTU21D;67641;59.864;30.464;2023-04-24T06:27:53;15.85;47.54
78366;HTU21D;67641;59.864;30.464;2023-04-24T06:30:19;15.83;48.66
78366;HTU21D;67641;59.864;30.464;2023-04-24T06:32:46;15.83;49.01
78366;HTU21D;67641;59.864;30.464;2023-04-24T06:35:12;15.88;49.11
78366;HTU21D;67641;59.864;30.464;2023-04-24T06:37:41;15.89;48.18
78366;HTU21D;67641;59.864;30.464;2023-04-24T06:40:08;15.91;48.25
78366;HTU21D;67641;59.864;30.464;2023-04-24T06:42:35;15.96;48.99
78366;HTU21D;67641;59.864;30.464;2023-04-24T06:45:02;15.99;48.66
78366;HTU21D;67641;59.864;30.464;2023-04-24T06:47:29;16.00;48.70
78366;HTU21D;67641;59.864;30.464;2023-04-24T06:49:56;16.01;48.12
78366;HTU21D;67641;59.864;30.464;2023-04-24T06:52:23;16.02;48.49
78366;HTU21D;67641;59.864;30.464;2023-04-24T06:54:50;16.05;48.99
78366;HTU21D;67641;59.864;30.464;2023-04-24T06:57:17;16.11;48.05
78366;HTU21D;67641;59.864;30.464;2023-04-24T06:59:43;16.15;50.41
78366;HTU21D;67641;59.864;30.464;2023-04-24T07:02:09;16.21;47.97
78366;HTU21D;67641;59.864;30.464;2023-04-24T07:04:36;16.31;49.55
78366;HTU21D;67641;59.864;30.464;2023-04-24T07:07:02;16.41;48.29
78366;HTU21D;67641;59.864;30.464;2023-04-24T07:09:29;16.43;47.99
78366;HTU21D;67641;59.864;30.464;2023-04-24T07:11:55;16.42;48.50
78366;HTU21D;67641;59.864;30.464;2023-04-24T07:14:22;16.45;50.08
78366;HTU21D;67641;59.864;30.464;2023-04-24T07:16:49;16.45;49.57
78366;HTU21D;67641;59.864;30.464;2023-04-24T07:19:15;16.47;50.24
78366;HTU21D;67641;59.864;30.464;2023-04-24T07:21:42;16.45;51.39
78366;HTU21D;67641;59.864;30.464;2023-04-24T07:24:08;16.49;50.85
78366;HTU21D;67641;59.864;30.464;2023-04-24T07:26:37;16.55;50.97
78366;HTU21D;67641;59.864;30.464;2023-04-24T07:29:04;16.58;51.03
78366;HTU21D;67641;59.864;30.464;2023-04-24T07:31:31;16.63;51.29
78366;HTU21D;67641;59.864;30.464;2023-04-24T07:33:57;16.67;51.72
78366;HTU21D;67641;59.864;30.464;2023-04-24T07:36:24;16.74;52.75
78366;HTU21D;67641;59.864;30.464;2023-04-24T07:38:52;16.75;51.35
78366;HTU21D;67641;59.864;30.464;2023-04-24T07:41:19;16.75;51.82
78366;HTU21D;67641;59.864;30.464;2023-04-24T07:43:46;16.72;52.06
78366;HTU21D;67641;59.864;30.464;2023-04-24T07:46:13;16.75;53.70
78366;HTU21D;67641;59.864;30.464;2023-04-24T07:48:40;16.76;54.04
78366;HTU21D;67641;59.864;30.464;2023-04-24T07:51:07;16.76;54.42
78366;HTU21D;67641;59.864;30.464;2023-04-24T07:53:36;16.74;56.37
78366;HTU21D;67641;59.864;30.464;2023-04-24T07:56:02;16.82;54.22
78366;HTU21D;67641;59.864;30.464;2023-04-24T07:58:29;16.85;53.75
78366;HTU21D;67641;59.864;30.464;2023-04-24T08:00:55;16.88;53.23
78366;HTU21D;67641;59.864;30.464;2023-04-24T08:03:22;16.89;55.70
78366;HTU21D;67641;59.864;30.464;2023-04-24T08:05:48;16.92;55.51
78366;HTU21D;67641;59.864;30.464;2023-04-24T08:08:17;16.96;53.89
78366;HTU21D;67641;59.864;30.464;2023-04-24T08:10:43;17.00;53.35
78366;HTU21D;67641;59.864;30.464;2023-04-24T08:13:10;17.02;52.34
78366;HTU21D;67641;59.864;30.464;2023-04-24T08:15:37;17.01;52.49
78366;HTU21D;67641;59.864;30.464;2023-04-24T08:18:04;17.03;51.19
78366;HTU21D;67641;59.864;30.464;2023-04-24T08:20:30;17.06;52.86
78366;HTU21D;67641;59.864;30.464;2023-04-24T08:22:56;17.07;52.60
78366;HTU21D;67641;59.864;30.464;2023-04-24T08:25:23;17.10;51.32
78366;HTU21D;67641;59.864;30.464;2023-04-24T08:27:51;17.14;50.88
78366;HTU21D;67641;59.864;30.464;2023-04-24T08:30:18;17.16;52.14
78366;HTU21D;67641;59.864;30.464;2023-04-24T08:32:44;17.16;51.21
78366;HTU21D;67641;59.864;30.464;2023-04-24T08:35:11;17.17;51.88
78366;HTU21D;67641;59.864;30.464;2023-04-24T08:37:37;17.20;51.62
78366;HTU21D;67641;59.864;30.464;2023-04-24T08:40:11;17.22;51.28
78366;HTU21D;67641;59.864;30.464;2023-04-24T08:42:39;17.28;50.87
78366;HTU21D;67641;59.864;30.464;2023-04-24T08:45:08;17.31;51.53
78366;HTU21D;67641;59.864;30.464;2023-04-24T08:47:35;17.34;50.57
78366;HTU21D;67641;59.864;30.464;2023-04-24T08:50:03;17.34;50.96
78366;HTU21D;67641;59.864;30.464;2023-04-24T08:52:35;17.38;51.31
78366;HTU21D;67641;59.864;30.464;2023-04-24T08:55:02;17.40;50.18
78366;HTU21D;67641;59.864;30.464;2023-04-24T08:57:29;17.41;50.56
78366;HTU21D;67641;59.864;30.464;2023-04-24T08:59:58;17.44;51.34
78366;HTU21D;67641;59.864;30.464;2023-04-24T09:02:25;17.48;49.81
78366;HTU21D;67641;59.864;30.464;2023-04-24T09:04:52;17.49;50.79
78366;HTU21D;67641;59.864;30.464;2023-04-24T09:07:20;17.50;50.83
78366;HTU21D;67641;59.864;30.464;2023-04-24T09:09:50;17.52;51.27
78366;HTU21D;67641;59.864;30.464;2023-04-24T09:12:17;17.51;50.95
78366;HTU21D;67641;59.864;30.464;2023-04-24T09:14:45;17.53;50.45
78366;HTU21D;67641;59.864;30.464;2023-04-24T09:17:12;17.56;50.21
78366;HTU21D;67641;59.864;30.464;2023-04-24T09:19:38;17.60;49.50
78366;HTU21D;67641;59.864;30.464;2023-04-24T09:22:06;17.62;50.97
78366;HTU21D;67641;59.864;30.464;2023-04-24T09:24:34;17.66;50.37
78366;HTU21D;67641;59.864;30.464;2023-04-24T09:27:01;17.63;50.19
78366;HTU21D;67641;59.864;30.464;2023-04-24T09:29:28;17.63;50.40
78366;HTU21D;67641;59.864;30.464;2023-04-24T09:31:55;17.62;50.77
78366;HTU21D;67641;59.864;30.464;2023-04-24T09:34:22;17.66;50.65
78366;HTU21D;67641;59.864;30.464;2023-04-24T09:36:50;17.65;49.13
78366;HTU21D;67641;59.864;30.464;2023-04-24T09:39:17;17.64;51.21
78366;HTU21D;67641;59.864;30.464;2023-04-24T09:41:51;17.69;48.75
78366;HTU21D;67641;59.864;30.464;2023-04-24T09:44:22;17.73;48.92
78366;HTU21D;67641;59.864;30.464;2023-04-24T09:46:54;17.75;47.44
78366;HTU21D;67641;59.864;30.464;2023-04-24T09:49:25;17.79;47.67
78366;HTU21D;67641;59.864;30.464;2023-04-24T09:52:09;17.76;47.27
78366;HTU21D;67641;59.864;30.464;2023-04-24T09:54:37;17.78;47.67
78366;HTU21D;67641;59.864;30.464;2023-04-24T09:57:04;17.82;46.89
78366;HTU21D;67641;59.864;30.464;2023-04-24T09:59:31;17.85;46.53
78366;HTU21D;67641;59.864;30.464;2023-04-24T10:01:59;17.85;46.17
78366;HTU21D;67641;59.864;30.464;2023-04-24T10:04:27;17.84;45.23
78366;HTU21D;67641;59.864;30.464;2023-04-24T10:06:56;17.79;44.64
78366;HTU21D;67641;59.864;30.464;2023-04-24T10:09:25;17.77;45.08
78366;HTU21D;67641;59.864;30.464;2023-04-24T10:11:55;17.75;44.67
78366;HTU21D;67641;59.864;30.464;2023-04-24T10:14:25;17.76;45.06
78366;HTU21D;67641;59.864;30.464;2023-04-24T10:16:54;17.79;44.06
78366;HTU21D;67641;59.864;30.464;2023-04-24T10:19:25;17.84;45.07
78366;HTU21D;67641;59.864;30.464;2023-04-24T10:21:52;17.90;43.93
78366;HTU21D;67641;59.864;30.464;2023-04-24T10:24:20;17.92;44.24
78366;HTU21D;67641;59.864;30.464;2023-04-24T10:26:47;17.94;44.94
78366;HTU21D;67641;59.864;30.464;2023-04-24T10:29:18;17.97;44.09
78366;HTU21D;67641;59.864;30.464;2023-04-24T10:31:45;17.96;43.07
78366;HTU21D;67641;59.864;30.464;2023-04-24T10:34:13;17.91;43.69
78366;HTU21D;67641;59.864;30.464;2023-04-24T10:36:43;17.91;43.89
78366;HTU21D;67641;59.864;30.464;2023-04-24T10:39:13;17.89;43.78
78366;HTU21D;67641;59.864;30.464;2023-04-24T10:41:41;17.85;44.29
78366;HTU21D;67641;59.864;30.464;2023-04-24T10:44:09;17.88;43.64
78366;HTU21D;67641;59.864;30.464;2023-04-24T10:46:37;17.87;44.63
78366;HTU21D;67641;59.864;30.464;2023-04-24T10:49:05;17.92;45.68
78366;HTU21D;67641;59.864;30.464;2023-04-24T10:51:49;17.98;45.22
78366;HTU21D;67641;59.864;30.464;2023-04-24T10:54:35;18.04;44.74
78366;HTU21D;67641;59.864;30.464;2023-04-24T10:59:46;18.12;44.70
78366;HTU21D;67641;59.864;30.464;2023-04-24T11:02:17;18.11;44.96
78366;HTU21D;67641;59.864;30.464;2023-04-24T11:04:44;18.10;45.03
78366;HTU21D;67641;59.864;30.464;2023-04-24T11:07:12;18.10;45.00
78366;HTU21D;67641;59.864;30.464;2023-04-24T11:09:39;18.14;45.54
78366;HTU21D;67641;59.864;30.464;2023-04-24T11:12:10;18.12;45.75
78366;HTU21D;67641;59.864;30.464;2023-04-24T11:17:28;18.10;48.59
78366;HTU21D;67641;59.864;30.464;2023-04-24T11:20:01;18.10;49.12
78366;HTU21D;67641;59.864;30.464;2023-04-24T11:22:29;18.00;50.14
78366;HTU21D;67641;59.864;30.464;2023-04-24T11:25:00;18.03;50.27
78366;HTU21D;67641;59.864;30.464;2023-04-24T11:27:31;17.97;49.34
78366;HTU21D;67641;59.864;30.464;2023-04-24T11:30:02;17.95;50.25
78366;HTU21D;67641;59.864;30.464;2023-04-24T11:37:33;18.02;49.74
78366;HTU21D;67641;59.864;30.464;2023-04-24T11:40:01;18.02;50.81
78366;HTU21D;67641;59.864;30.464;2023-04-24T11:42:33;18.02;50.33
78366;HTU21D;67641;59.864;30.464;2023-04-24T11:44:59;18.08;50.54
78366;HTU21D;67641;59.864;30.464;2023-04-24T11:47:29;18.09;50.18
78366;HTU21D;67641;59.864;30.464;2023-04-24T11:49:57;18.09;48.87
78366;HTU21D;67641;59.864;30.464;2023-04-24T11:52:23;18.05;49.08
78366;HTU21D;67641;59.864;30.464;2023-04-24T11:54:50;18.03;49.08
78366;HTU21D;67641;59.864;30.464;2023-04-24T11:57:21;18.06;49.24
78366;HTU21D;67641;59.864;30.464;2023-04-24T11:59:48;18.07;49.34
78366;HTU21D;67641;59.864;30.464;2023-04-24T12:02:22;18.11;49.69
78366;HTU21D;67641;59.864;30.464;2023-04-24T12:04:49;18.15;49.52
78366;HTU21D;67641;59.864;30.464;2023-04-24T12:07:16;18.19;50.11
78366;HTU21D;67641;59.864;30.464;2023-04-24T12:12:11;18.20;49.73
78366;HTU21D;67641;59.864;30.464;2023-04-24T12:14:49;18.17;49.93
78366;HTU21D;67641;59.864;30.464;2023-04-24T12:17:16;18.18;50.64
78366;HTU21D;67641;59.864;30.464;2023-04-24T12:19:47;18.22;50.05
78366;HTU21D;67641;59.864;30.464;2023-04-24T12:22:14;18.19;49.67
78366;HTU21D;67641;59.864;30.464;2023-04-24T12:25:03;18.14;49.43
78366;HTU21D;67641;59.864;30.464;2023-04-24T12:27:34;18.08;49.33
78366;HTU21D;67641;59.864;30.464;2023-04-24T12:30:03;18.06;50.38
78366;HTU21D;67641;59.864;30.464;2023-04-24T12:32:30;17.99;50.72
78366;HTU21D;67641;59.864;30.464;2023-04-24T12:34:57;17.99;51.07
78366;HTU21D;67641;59.864;30.464;2023-04-24T12:37:26;17.95;50.68
78366;HTU21D;67641;59.864;30.464;2023-04-24T12:40:08;17.93;50.83
78366;HTU21D;67641;59.864;30.464;2023-04-24T12:42:45;17.94;51.01
78366;HTU21D;67641;59.864;30.464;2023-04-24T12:45:12;17.99;50.79
78366;HTU21D;67641;59.864;30.464;2023-04-24T12:47:40;18.05;49.96
78366;HTU21D;67641;59.864;30.464;2023-04-24T12:50:11;17.99;49.85
78366;HTU21D;67641;59.864;30.464;2023-04-24T12:52:39;18.09;50.74
78366;HTU21D;67641;59.864;30.464;2023-04-24T12:55:07;18.13;49.76
78366;HTU21D;67641;59.864;30.464;2023-04-24T12:57:38;18.14;49.60
78366;HTU21D;67641;59.864;30.464;2023-04-24T13:00:06;18.20;50.70
78366;HTU21D;67641;59.864;30.464;2023-04-24T13:02:34;18.14;50.83
78366;HTU21D;67641;59.864;30.464;2023-04-24T13:05:01;18.10;51.08
78366;HTU21D;67641;59.864;30.464;2023-04-24T13:07:28;18.13;51.04
78366;HTU21D;67641;59.864;30.464;2023-04-24T13:09:56;18.18;50.37
78366;HTU21D;67641;59.864;30.464;2023-04-24T13:12:24;18.25;50.65
78366;HTU21D;67641;59.864;30.464;2023-04-24T13:14:51;18.27;50.18
78366;HTU21D;67641;59.864;30.464;2023-04-24T13:17:18;18.35;49.92
78366;HTU21D;67641;59.864;30.464;2023-04-24T13:19:45;18.40;49.56
78366;HTU21D;67641;59.864;30.464;2023-04-24T13:22:12;18.39;51.08
78366;HTU21D;67641;59.864;30.464;2023-04-24T13:24:39;18.34;50.76
78366;HTU21D;67641;59.864;30.464;2023-04-24T13:27:09;18.39;51.25
78366;HTU21D;67641;59.864;30.464;2023-04-24T13:29:36;18.41;51.35
78366;HTU21D;67641;59.864;30.464;2023-04-24T13:32:03;18.36;50.92
78366;HTU21D;67641;59.864;30.464;2023-04-24T13:34:30;18.33;51.27
78366;HTU21D;67641;59.864;30.464;2023-04-24T13:36:58;18.32;50.95
78366;HTU21D;67641;59.864;30.464;2023-04-24T13:39:25;18.34;51.75
78366;HTU21D;67641;59.864;30.464;2023-04-24T13:41:55;18.39;51.99
78366;HTU21D;67641;59.864;30.464;2023-04-24T13:47:38;18.50;51.31
78366;HTU21D;67641;59.864;30.464;2023-04-24T13:50:08;18.48;52.25
78366;HTU21D;67641;59.864;30.464;2023-04-24T13:52:35;18.48;51.52
78366;HTU21D;67641;59.864;30.464;2023-04-24T13:55:01;18.46;53.37
78366;HTU21D;67641;59.864;30.464;2023-04-24T13:57:28;18.41;54.06
78366;HTU21D;67641;59.864;30.464;2023-04-24T13:59:55;18.48;53.84
78366;HTU21D;67641;59.864;30.464;2023-04-24T14:02:24;18.52;53.52
78366;HTU21D;67641;59.864;30.464;2023-04-24T14:04:51;18.57;53.19
78366;HTU21D;67641;59.864;30.464;2023-04-24T14:07:17;18.64;52.27
78366;HTU21D;67641;59.864;30.464;2023-04-24T14:09:44;18.62;52.01
78366;HTU21D;67641;59.864;30.464;2023-04-24T14:12:10;18.55;52.10
78366;HTU21D;67641;59.864;30.464;2023-04-24T14:14:37;18.52;52.24
78366;HTU21D;67641;59.864;30.464;2023-04-24T14:17:03;18.50;52.18
78366;HTU21D;67641;59.864;30.464;2023-04-24T14:19:30;18.54;51.77
78366;HTU21D;67641;59.864;30.464;2023-04-24T14:21:56;18.63;51.46
78366;HTU21D;67641;59.864;30.464;2023-04-24T14:24:24;18.64;51.64
78366;HTU21D;67641;59.864;30.464;2023-04-24T14:26:50;18.71;50.93
78366;HTU21D;67641;59.864;30.464;2023-04-24T14:29:17;18.62;50.92
78366;HTU21D;67641;59.864;30.464;2023-04-24T14:31:43;18.55;51.53
78366;HTU21D;67641;59.864;30.464;2023-04-24T14:34:10;18.49;52.28
78366;HTU21D;67641;59.864;30.464;2023-04-24T14:36:37;18.47;52.48
78366;HTU21D;67641;59.864;30.464;2023-04-24T14:39:03;18.37;52.83
78366;HTU21D;67641;59.864;30.464;2023-04-24T14:41:33;18.24;52.84
78366;HTU21D;67641;59.864;30.464;2023-04-24T14:44:02;18.20;52.55
78366;HTU21D;67641;59.864;30.464;2023-04-24T14:46:29;18.17;52.58
78366;HTU21D;67641;59.864;30.464;2023-04-24T14:48:57;18.04;53.11
78366;HTU21D;67641;59.864;30.464;2023-04-24T14:51:24;17.94;53.35
78366;HTU21D;67641;59.864;30.464;2023-04-24T14:53:51;17.88;53.84
78366;HTU21D;67641;59.864;30.464;2023-04-24T14:56:17;17.80;54.20
78366;HTU21D;67641;59.864;30.464;2023-04-24T14:58:44;17.75;54.29
78366;HTU21D;67641;59.864;30.464;2023-04-24T15:01:11;17.73;54.36
78366;HTU21D;67641;59.864;30.464;2023-04-24T15:03:37;17.67;54.82
78366;HTU21D;67641;59.864;30.464;2023-04-24T15:06:04;17.58;55.06
78366;HTU21D;67641;59.864;30.464;2023-04-24T15:08:30;17.58;55.33
78366;HTU21D;67641;59.864;30.464;2023-04-24T15:10:57;17.59;54.92
78366;HTU21D;67641;59.864;30.464;2023-04-24T15:13:23;17.51;54.87
78366;HTU21D;67641;59.864;30.464;2023-04-24T15:15:50;17.46;54.95
78366;HTU21D;67641;59.864;30.464;2023-04-24T15:18:16;17.37;55.42
78366;HTU21D;67641;59.864;30.464;2023-04-24T15:20:43;17.24;55.58